createdAt,value
2019-06-20T00:00:05.635Z,73.16
2019-06-20T00:01:05.611Z,73.86
2019-06-20T00:02:05.605Z,71.86
2019-06-20T00:03:05.612Z,70.86
2019-06-20T00:04:05.598Z,70.79
2019-06-20T00:05:05.563Z,69.69
2019-06-20T00:06:05.579Z,69.79
2019-06-20T00:07:05.545Z,69.96
2019-06-20T00:08:05.557Z,70.86
2019-06-20T00:09:05.567Z,70.96
2019-06-20T00:10:05.531Z,71.56
2019-06-20T00:11:05.501Z,72.36
2019-06-20T00:12:05.511Z,71.66
2019-06-20T00:13:05.519Z,72.27
2019-06-20T00:14:05.486Z,72.23
2019-06-20T00:15:05.460Z,72.06
2019-06-20T00:16:05.465Z,72.86
2019-06-20T00:17:05.435Z,72.97
2019-06-20T00:18:05.453Z,73.27
2019-06-20T00:19:05.430Z,72.36
2019-06-20T00:20:05.429Z,72.60
2019-06-20T00:21:05.392Z,73.50
2019-06-20T00:22:05.427Z,72.90
2019-06-20T00:23:05.374Z,73.00
2019-06-20T00:24:05.391Z,74.01
2019-06-20T00:25:05.412Z,73.20
2019-06-20T00:26:05.354Z,73.90
2019-06-20T00:27:05.329Z,74.30
2019-06-20T00:28:05.336Z,74.20
2019-06-20T00:29:05.351Z,74.40
2019-06-20T00:30:05.291Z,72.80
2019-06-20T00:31:05.296Z,73.00
2019-06-20T00:32:05.270Z,72.90
2019-06-20T00:33:05.263Z,73.57
2019-06-20T00:34:05.349Z,74.17
2019-06-20T00:35:05.247Z,73.80
2019-06-20T00:36:05.228Z,73.97
2019-06-20T00:37:05.224Z,72.06
2019-06-20T00:38:05.203Z,73.16
2019-06-20T00:39:05.197Z,71.80
2019-06-20T00:40:05.260Z,72.83
2019-06-20T00:41:05.185Z,72.63
2019-06-20T00:42:05.171Z,72.83
2019-06-20T00:43:16.943Z,72.74
2019-06-20T00:44:05.142Z,72.43
2019-06-20T00:45:05.145Z,72.53
2019-06-20T00:46:05.136Z,70.83
2019-06-20T00:47:05.108Z,71.53
2019-06-20T00:48:05.250Z,71.63
2019-06-20T00:49:05.108Z,71.53
2019-06-20T00:50:05.105Z,70.83
2019-06-20T00:51:05.078Z,71.73
2019-06-20T00:52:05.061Z,71.33
2019-06-20T00:53:05.045Z,70.09
2019-06-20T00:54:05.058Z,68.72
2019-06-20T00:55:05.083Z,67.99
2019-06-20T00:56:05.010Z,67.58
2019-06-20T00:57:05.030Z,66.08
2019-06-20T00:58:04.997Z,66.25
2019-06-20T00:59:04.978Z,66.65
2019-06-20T01:00:04.973Z,67.65
2019-06-20T01:01:04.983Z,66.25
2019-06-20T01:02:04.942Z,68.15
2019-06-20T01:03:04.952Z,67.22
2019-06-20T01:04:04.942Z,67.15
2019-06-20T01:05:04.918Z,66.55
2019-06-20T01:06:04.923Z,67.02
2019-06-20T01:07:04.890Z,66.85
2019-06-20T01:08:04.882Z,66.05
2019-06-20T01:09:04.908Z,65.95
2019-06-20T01:10:04.876Z,65.72
2019-06-20T01:11:04.895Z,65.45
2019-06-20T01:12:04.871Z,66.15
2019-06-20T01:13:04.826Z,67.02
2019-06-20T01:14:04.814Z,68.02
2019-06-20T01:15:04.806Z,67.92
2019-06-20T01:16:04.815Z,67.82
2019-06-20T01:17:04.804Z,67.62
2019-06-20T01:18:04.790Z,67.85
2019-06-20T01:19:04.758Z,68.85
2019-06-20T01:20:04.749Z,68.22
2019-06-20T01:21:04.744Z,68.76
2019-06-20T01:22:04.788Z,68.05
2019-06-20T01:23:04.725Z,67.32
2019-06-20T01:24:04.725Z,67.05
2019-06-20T01:25:04.721Z,66.65
2019-06-20T01:26:04.686Z,66.75
2019-06-20T01:27:04.721Z,66.45
2019-06-20T01:28:04.727Z,66.85
2019-06-20T01:29:04.658Z,66.65
2019-06-20T01:30:04.641Z,66.95
2019-06-20T01:31:04.637Z,66.45
2019-06-20T01:32:04.617Z,66.65
2019-06-20T01:33:04.631Z,67.65
2019-06-20T01:34:04.636Z,67.76
2019-06-20T01:35:04.602Z,68.05
2019-06-20T01:36:04.574Z,66.55
2019-06-20T01:37:04.563Z,65.65
2019-06-20T01:38:04.594Z,66.25
2019-06-20T01:39:04.560Z,66.65
2019-06-20T01:40:04.545Z,67.05
2019-06-20T01:41:06.213Z,66.55
2019-06-20T01:42:04.513Z,66.65
2019-06-20T01:43:04.518Z,66.25
2019-06-20T01:44:04.499Z,66.75
2019-06-20T01:45:04.479Z,66.75
2019-06-20T01:46:04.485Z,66.78
2019-06-20T01:47:04.495Z,65.95
2019-06-20T01:48:04.446Z,67.05
2019-06-20T01:49:04.436Z,67.05
2019-06-20T01:50:04.437Z,66.18
2019-06-20T01:51:04.455Z,66.88
2019-06-20T01:52:04.417Z,67.49
2019-06-20T01:53:04.429Z,66.85
2019-06-20T01:54:04.383Z,67.18
2019-06-20T01:55:04.369Z,66.58
2019-06-20T01:56:04.369Z,67.58
2019-06-20T01:57:04.381Z,67.08
2019-06-20T01:58:04.343Z,67.88
2019-06-20T01:59:04.380Z,67.58
2019-06-20T02:00:04.318Z,67.49
2019-06-20T02:01:04.307Z,67.49
2019-06-20T02:02:04.332Z,67.49
2019-06-20T02:03:04.289Z,67.58
2019-06-20T02:04:04.285Z,67.52
2019-06-20T02:05:04.313Z,67.52
2019-06-20T02:06:04.254Z,68.08
2019-06-20T02:07:04.309Z,68.19
2019-06-20T02:08:04.255Z,68.59
2019-06-20T02:09:04.234Z,67.88
2019-06-20T02:10:04.222Z,67.88
2019-06-20T02:11:04.201Z,67.79
2019-06-20T02:12:04.265Z,67.49
2019-06-20T02:13:04.362Z,68.19
2019-06-20T02:14:07.457Z,67.99
2019-06-20T02:15:04.167Z,68.29
2019-06-20T02:16:04.159Z,67.69
2019-06-20T02:17:04.135Z,67.79
2019-06-20T02:18:04.195Z,67.79
2019-06-20T02:19:04.128Z,67.69
2019-06-20T02:20:04.105Z,67.88
2019-06-20T02:21:04.104Z,67.88
2019-06-20T02:22:04.103Z,67.69
2019-06-20T02:23:04.131Z,67.58
2019-06-20T02:24:04.082Z,67.58
2019-06-20T02:25:04.062Z,67.99
2019-06-20T02:26:04.036Z,68.08
2019-06-20T02:27:04.046Z,68.19
2019-06-20T02:28:04.015Z,68.99
2019-06-20T02:29:04.046Z,68.49
2019-06-20T02:30:04.028Z,68.59
2019-06-20T02:31:03.997Z,68.99
2019-06-20T02:32:03.976Z,68.59
2019-06-20T02:33:03.974Z,68.59
2019-06-20T02:34:03.982Z,68.99
2019-06-20T02:35:03.945Z,68.59
2019-06-20T02:36:03.972Z,68.69
2019-06-20T02:37:03.942Z,68.69
2019-06-20T02:38:03.912Z,68.39
2019-06-20T02:39:03.956Z,68.69
2019-06-20T02:40:03.886Z,68.79
2019-06-20T02:41:03.888Z,68.89
2019-06-20T02:42:03.913Z,69.19
2019-06-20T02:43:03.863Z,69.02
2019-06-20T02:44:03.851Z,69.22
2019-06-20T02:45:03.865Z,69.62
2019-06-20T02:46:03.829Z,69.32
2019-06-20T02:47:03.817Z,69.42
2019-06-20T02:48:03.891Z,70.12
2019-06-20T02:49:03.789Z,69.62
2019-06-20T02:50:03.801Z,69.92
2019-06-20T02:51:03.791Z,69.92
2019-06-20T02:52:03.765Z,69.96
2019-06-20T02:53:03.756Z,70.46
2019-06-20T02:54:03.772Z,70.96
2019-06-20T02:55:03.777Z,71.03
2019-06-20T02:56:03.727Z,70.96
2019-06-20T02:57:03.704Z,70.86
2019-06-20T02:58:03.697Z,70.66
2019-06-20T02:59:03.804Z,70.96
2019-06-20T03:00:03.764Z,71.16
2019-06-20T03:01:03.691Z,71.36
2019-06-20T03:02:03.655Z,71.40
2019-06-20T03:03:03.666Z,71.56
2019-06-20T03:04:03.630Z,70.56
2019-06-20T03:05:03.620Z,70.86
2019-06-20T03:06:03.634Z,70.89
2019-06-20T03:07:03.624Z,71.40
2019-06-20T03:08:03.595Z,71.66
2019-06-20T03:09:03.599Z,72.00
2019-06-20T03:10:03.568Z,72.00
2019-06-20T03:11:03.619Z,72.10
2019-06-20T03:12:03.566Z,72.50
2019-06-20T03:13:03.560Z,72.40
2019-06-20T03:14:03.536Z,72.60
2019-06-20T03:15:03.537Z,72.40
2019-06-20T03:16:03.523Z,73.00
2019-06-20T03:17:03.520Z,73.41
2019-06-20T03:18:03.502Z,72.71
2019-06-20T03:19:03.503Z,73.00
2019-06-20T03:20:04.261Z,73.00
2019-06-20T03:21:03.453Z,73.30
2019-06-20T03:22:03.472Z,73.50
2019-06-20T03:23:03.425Z,74.01
2019-06-20T03:24:03.429Z,73.00
2019-06-20T03:25:03.690Z,73.41
2019-06-20T03:26:03.430Z,74.11
2019-06-20T03:27:03.459Z,74.21
2019-06-20T03:28:03.370Z,73.71
2019-06-20T03:29:03.369Z,73.91
2019-06-20T03:30:03.351Z,73.81
2019-06-20T03:31:03.369Z,74.11
2019-06-20T03:32:03.394Z,74.01
2019-06-20T03:33:03.364Z,74.01
2019-06-20T03:34:03.313Z,74.61
2019-06-20T03:35:03.320Z,75.31
2019-06-20T03:36:03.297Z,75.31
2019-06-20T03:37:03.291Z,76.12
2019-06-20T03:38:03.300Z,75.11
2019-06-20T03:39:03.272Z,75.71
2019-06-20T03:40:03.255Z,75.31
2019-06-20T03:41:03.243Z,74.65
2019-06-20T03:42:03.281Z,74.01
2019-06-20T03:43:03.232Z,74.71
2019-06-20T03:44:03.198Z,75.01
2019-06-20T03:45:03.188Z,75.42
2019-06-20T03:46:03.241Z,75.92
2019-06-20T03:47:03.184Z,75.92
2019-06-20T03:48:03.200Z,75.51
2019-06-20T03:49:03.168Z,75.42
2019-06-20T03:50:03.136Z,75.82
2019-06-20T03:51:03.127Z,75.71
2019-06-20T03:52:03.114Z,76.21
2019-06-20T03:53:03.167Z,75.92
2019-06-20T03:54:03.151Z,76.02
2019-06-20T03:55:03.094Z,76.56
2019-06-20T03:56:03.074Z,76.76
2019-06-20T03:57:03.067Z,76.96
2019-06-20T03:58:03.108Z,76.96
2019-06-20T03:59:03.091Z,77.56
2019-06-20T04:00:03.067Z,77.66
2019-06-20T04:01:03.030Z,77.86
2019-06-20T04:02:03.004Z,78.06
2019-06-20T04:03:03.014Z,78.36
2019-06-20T04:04:03.268Z,77.66
2019-06-20T04:05:03.053Z,77.22
2019-06-20T04:06:02.979Z,77.32
2019-06-20T04:07:02.982Z,76.62
2019-06-20T04:08:02.942Z,76.92
2019-06-20T04:09:02.932Z,77.83
2019-06-20T04:10:02.939Z,77.72
2019-06-20T04:11:03.059Z,77.32
2019-06-20T04:12:02.913Z,76.68
2019-06-20T04:13:02.891Z,76.78
2019-06-20T04:14:02.888Z,76.38
2019-06-20T04:15:17.873Z,76.32
2019-06-20T04:16:02.880Z,74.88
2019-06-20T04:17:02.889Z,75.11
2019-06-20T04:18:02.842Z,75.82
2019-06-20T04:19:02.824Z,75.21
2019-06-20T04:20:02.811Z,75.71
2019-06-20T04:21:02.827Z,76.12
2019-06-20T04:22:02.807Z,75.71
2019-06-20T04:23:02.798Z,75.42
2019-06-20T04:24:02.801Z,75.71
2019-06-20T04:25:02.809Z,75.62
2019-06-20T04:26:02.807Z,75.92
2019-06-20T04:27:02.741Z,75.51
2019-06-20T04:28:02.746Z,75.92
2019-06-20T04:29:02.737Z,75.71
2019-06-20T04:30:02.728Z,75.42
2019-06-20T04:31:02.767Z,75.42
2019-06-20T04:32:02.705Z,75.62
2019-06-20T04:33:02.680Z,76.52
2019-06-20T04:34:02.662Z,76.02
2019-06-20T04:35:02.661Z,75.92
2019-06-20T04:36:02.656Z,76.02
2019-06-20T04:37:02.697Z,75.42
2019-06-20T04:38:02.622Z,75.78
2019-06-20T04:39:18.128Z,75.98
2019-06-20T04:40:02.601Z,76.18
2019-06-20T04:41:02.600Z,75.58
2019-06-20T04:42:02.607Z,75.88
2019-06-20T04:43:02.627Z,74.88
2019-06-20T04:44:02.553Z,75.18
2019-06-20T04:45:02.550Z,75.18
2019-06-20T04:46:02.532Z,74.54
2019-06-20T04:47:02.578Z,74.77
2019-06-20T04:48:02.516Z,74.57
2019-06-20T04:49:02.502Z,74.37
2019-06-20T04:50:02.522Z,74.68
2019-06-20T04:51:02.492Z,74.64
2019-06-20T04:52:02.470Z,75.24
2019-06-20T04:53:02.484Z,74.84
2019-06-20T04:54:02.448Z,74.84
2019-06-20T04:55:02.443Z,75.04
2019-06-20T04:56:05.550Z,75.74
2019-06-20T04:57:02.432Z,74.94
2019-06-20T04:58:02.432Z,75.54
2019-06-20T04:59:02.411Z,75.74
2019-06-20T05:00:02.382Z,76.45
2019-06-20T05:01:02.382Z,76.18
2019-06-20T05:02:02.400Z,75.78
2019-06-20T05:03:02.733Z,76.15
2019-06-20T05:04:02.352Z,76.68
2019-06-20T05:05:02.377Z,77.19
2019-06-20T05:06:02.320Z,77.39
2019-06-20T05:07:02.312Z,77.99
2019-06-20T05:08:02.416Z,79.19
2019-06-20T05:09:02.284Z,80.40
2019-06-20T05:10:02.291Z,80.94
2019-06-20T05:11:02.275Z,81.94
2019-06-20T05:12:02.289Z,82.34
2019-06-20T05:13:02.267Z,82.75
2019-06-20T05:14:02.250Z,83.04
2019-06-20T05:15:02.269Z,83.85
2019-06-20T05:16:02.218Z,84.05
2019-06-20T05:17:02.203Z,83.75
2019-06-20T05:18:02.189Z,82.14
2019-06-20T05:19:02.195Z,81.38
2019-06-20T05:20:02.176Z,81.48
2019-06-20T05:21:02.225Z,82.38
2019-06-20T05:22:02.154Z,82.68
2019-06-20T05:23:02.136Z,83.39
2019-06-20T05:24:02.176Z,83.79
2019-06-20T05:25:02.114Z,84.59
2019-06-20T05:26:02.133Z,84.19
2019-06-20T05:27:02.147Z,84.49
2019-06-20T05:28:02.105Z,84.29
2019-06-20T05:29:05.304Z,84.80
2019-06-20T05:30:02.079Z,85.30
2019-06-20T05:31:02.072Z,85.50
2019-06-20T05:32:02.037Z,85.70
2019-06-20T05:33:02.128Z,85.70
2019-06-20T05:34:02.030Z,86.20
2019-06-20T05:35:03.109Z,85.60
2019-06-20T05:36:02.001Z,85.90
2019-06-20T05:37:01.987Z,86.40
2019-06-20T05:38:01.975Z,87.30
2019-06-20T05:39:02.044Z,87.15
2019-06-20T05:40:02.025Z,86.44
2019-06-20T05:41:01.938Z,86.54
2019-06-20T05:42:01.943Z,87.24
2019-06-20T05:43:01.921Z,86.94
2019-06-20T05:44:01.909Z,87.15
2019-06-20T05:45:02.064Z,87.04
2019-06-20T05:46:09.610Z,86.54
2019-06-20T05:47:12.676Z,86.65
2019-06-20T05:48:01.870Z,86.74
2019-06-20T05:49:01.862Z,87.04
2019-06-20T05:50:01.853Z,86.65
2019-06-20T05:51:01.856Z,86.85
2019-06-20T05:52:01.862Z,86.30
2019-06-20T05:53:01.812Z,86.50
2019-06-20T05:54:01.804Z,86.54
2019-06-20T05:55:01.798Z,86.24
2019-06-20T05:56:01.832Z,86.40
2019-06-20T05:57:03.671Z,85.64
2019-06-20T05:58:01.817Z,85.80
2019-06-20T05:59:01.749Z,86.10
2019-06-20T06:00:01.744Z,86.80
2019-06-20T06:01:01.745Z,85.90
2019-06-20T06:02:01.745Z,86.20
2019-06-20T06:03:01.712Z,85.80
2019-06-20T06:04:01.692Z,85.80
2019-06-20T06:05:01.781Z,85.50
2019-06-20T06:06:01.673Z,85.36
2019-06-20T06:07:01.698Z,85.75
2019-06-20T06:08:01.659Z,86.66
2019-06-20T06:09:01.871Z,86.56
2019-06-20T06:10:04.348Z,86.26
2019-06-20T06:11:01.685Z,85.75
2019-06-20T06:12:01.675Z,85.52
2019-06-20T06:13:01.602Z,86.22
2019-06-20T06:14:01.599Z,85.52
2019-06-20T06:15:01.599Z,85.02
2019-06-20T06:16:01.562Z,84.61
2019-06-20T06:17:01.620Z,85.72
2019-06-20T06:18:01.724Z,85.61
2019-06-20T06:19:01.532Z,87.02
2019-06-20T06:20:01.536Z,85.41
2019-06-20T06:21:01.539Z,85.78
2019-06-20T06:22:01.504Z,84.51
2019-06-20T06:23:01.575Z,84.88
2019-06-20T06:24:01.495Z,85.27
2019-06-20T06:25:01.593Z,84.47
2019-06-20T06:26:01.470Z,84.67
2019-06-20T06:27:01.475Z,83.77
2019-06-20T06:28:01.539Z,84.77
2019-06-20T06:29:01.495Z,84.03
2019-06-20T06:30:01.427Z,84.88
2019-06-20T06:31:01.403Z,83.93
2019-06-20T06:32:01.406Z,84.13
2019-06-20T06:33:01.422Z,83.83
2019-06-20T06:34:01.389Z,84.53
2019-06-20T06:35:01.450Z,83.33
2019-06-20T06:36:01.541Z,84.33
2019-06-20T06:37:01.344Z,84.39
2019-06-20T06:38:01.353Z,83.73
2019-06-20T06:39:01.351Z,83.79
2019-06-20T06:40:01.363Z,82.99
2019-06-20T06:41:01.489Z,83.33
2019-06-20T06:42:01.420Z,83.19
2019-06-20T06:43:01.281Z,83.23
2019-06-20T06:44:01.290Z,83.49
2019-06-20T06:45:01.253Z,82.63
2019-06-20T06:46:01.244Z,82.39
2019-06-20T06:47:01.354Z,82.69
2019-06-20T06:48:01.230Z,82.59
2019-06-20T06:49:01.286Z,82.55
2019-06-20T06:50:01.219Z,82.09
2019-06-20T06:51:01.322Z,82.15
2019-06-20T06:52:01.182Z,82.49
2019-06-20T06:53:01.326Z,82.75
2019-06-20T06:54:01.185Z,82.45
2019-06-20T06:55:01.170Z,82.95
2019-06-20T06:56:01.133Z,82.81
2019-06-20T06:57:01.126Z,82.31
2019-06-20T06:58:01.112Z,82.21
2019-06-20T06:59:01.131Z,82.21
2019-06-20T07:00:01.329Z,81.61
2019-06-20T07:01:01.098Z,81.21
2019-06-20T07:02:01.073Z,80.21
2019-06-20T07:03:01.058Z,79.71
2019-06-20T07:04:01.104Z,80.00
2019-06-20T07:05:01.087Z,78.20
2019-06-20T07:06:01.158Z,79.00
2019-06-20T07:07:01.051Z,78.04
2019-06-20T07:08:01.005Z,78.24
2019-06-20T07:09:00.994Z,78.60
2019-06-20T07:10:00.982Z,79.21
2019-06-20T07:11:00.997Z,79.60
2019-06-20T07:12:00.979Z,80.11
2019-06-20T07:13:00.991Z,79.30
2019-06-20T07:14:00.942Z,78.97
2019-06-20T07:15:00.933Z,77.97
2019-06-20T07:16:00.976Z,78.36
2019-06-20T07:17:00.964Z,77.56
2019-06-20T07:18:00.907Z,76.56
2019-06-20T07:19:00.982Z,77.97
2019-06-20T07:20:00.913Z,78.56
2019-06-20T07:21:00.924Z,77.36
2019-06-20T07:22:00.855Z,77.97
2019-06-20T07:23:00.850Z,78.56
2019-06-20T07:24:01.084Z,77.36
2019-06-20T07:25:00.982Z,77.67
2019-06-20T07:26:00.922Z,77.47
2019-06-20T07:27:00.854Z,77.76
2019-06-20T07:28:00.826Z,77.86
2019-06-20T07:29:00.843Z,78.56
2019-06-20T07:30:00.831Z,78.27
2019-06-20T07:31:00.757Z,77.47
2019-06-20T07:32:00.802Z,78.43
2019-06-20T07:33:00.735Z,75.87
2019-06-20T07:34:00.733Z,77.13
2019-06-20T07:35:00.716Z,76.43
2019-06-20T07:36:00.714Z,76.63
2019-06-20T07:37:00.731Z,76.06
2019-06-20T07:38:00.731Z,76.23
2019-06-20T07:39:00.670Z,77.03
2019-06-20T07:40:00.678Z,74.93
2019-06-20T07:41:00.656Z,75.52
2019-06-20T07:42:00.693Z,76.83
2019-06-20T07:43:00.627Z,75.63
2019-06-20T07:44:00.646Z,75.73
2019-06-20T07:45:00.689Z,75.49
2019-06-20T07:46:02.912Z,74.93
2019-06-20T07:47:13.781Z,75.99
2019-06-20T07:48:00.595Z,74.89
2019-06-20T07:49:00.560Z,75.59
2019-06-20T07:50:00.550Z,74.19
2019-06-20T07:51:00.604Z,75.89
2019-06-20T07:52:00.528Z,73.59
2019-06-20T07:53:02.419Z,72.49
2019-06-20T07:54:00.521Z,72.49
2019-06-20T07:55:00.565Z,72.86
2019-06-20T07:56:00.519Z,72.86
2019-06-20T07:57:00.481Z,73.56
2019-06-20T07:58:00.769Z,72.42
2019-06-20T07:59:00.490Z,72.22
2019-06-20T08:00:00.440Z,71.42
2019-06-20T08:01:00.488Z,71.72
2019-06-20T08:02:00.429Z,72.39
2019-06-20T08:03:00.430Z,71.19
2019-06-20T08:04:00.431Z,71.19
2019-06-20T08:05:00.395Z,70.69
2019-06-20T08:06:00.376Z,70.09
2019-06-20T08:07:00.362Z,69.73
2019-06-20T08:08:00.432Z,70.19
2019-06-20T08:09:00.395Z,70.42
2019-06-20T08:10:00.575Z,69.69
2019-06-20T08:11:00.395Z,70.19
2019-06-20T08:12:00.324Z,69.39
2019-06-20T08:13:00.298Z,70.19
2019-06-20T08:14:00.363Z,71.99
2019-06-20T08:15:14.040Z,72.29
2019-06-20T08:16:03.478Z,70.99
2019-06-20T08:17:00.275Z,70.49
2019-06-20T08:18:00.244Z,68.36
2019-06-20T08:19:00.232Z,69.76
2019-06-20T08:20:00.286Z,68.93
2019-06-20T08:21:00.220Z,70.23
2019-06-20T08:22:00.356Z,68.83
2019-06-20T08:23:00.220Z,68.03
2019-06-20T08:24:00.184Z,69.73
2019-06-20T08:25:01.050Z,69.53
2019-06-20T08:26:00.507Z,68.70
2019-06-20T08:27:00.477Z,69.53
2019-06-20T08:28:00.768Z,68.99
2019-06-20T08:29:16.114Z,68.49
2019-06-20T08:30:01.174Z,68.99
2019-06-20T08:31:00.515Z,69.20
2019-06-20T08:32:01.111Z,68.19
2019-06-20T08:33:01.925Z,68.76
2019-06-20T08:34:00.477Z,68.37
2019-06-20T08:35:00.616Z,68.96
2019-06-20T08:36:00.482Z,67.96
2019-06-20T08:37:00.536Z,66.94
2019-06-20T08:38:01.132Z,67.33
2019-06-20T08:39:00.253Z,67.33
2019-06-20T08:40:00.114Z,66.14
2019-06-20T08:41:00.253Z,67.03
2019-06-20T08:42:00.514Z,66.94
2019-06-20T08:43:00.227Z,67.17
2019-06-20T08:44:00.070Z,68.07
2019-06-20T08:44:59.961Z,68.16
2019-06-20T08:46:00.007Z,67.47
2019-06-20T08:47:01.115Z,67.63
2019-06-20T08:48:00.121Z,67.54
2019-06-20T08:48:59.932Z,69.29
2019-06-20T08:50:01.538Z,69.69
2019-06-20T08:51:00.126Z,68.79
2019-06-20T08:52:01.209Z,68.50
2019-06-20T08:53:01.478Z,68.37
2019-06-20T08:54:01.080Z,68.07
2019-06-20T08:55:01.022Z,68.16
2019-06-20T08:56:00.942Z,67.14
2019-06-20T08:57:00.814Z,68.07
2019-06-20T08:58:01.443Z,66.44
2019-06-20T08:59:00.556Z,67.63
2019-06-20T09:00:00.665Z,65.15
2019-06-20T09:02:00.724Z,64.95
2019-06-20T09:03:00.551Z,65.84
2019-06-20T09:04:00.084Z,64.65
2019-06-20T09:05:00.268Z,63.89
2019-06-20T09:05:59.798Z,66.14
2019-06-20T09:07:00.624Z,65.35
2019-06-20T09:09:00.102Z,64.65
2019-06-20T09:09:59.864Z,64.75
2019-06-20T09:10:59.670Z,64.15
2019-06-20T09:12:00.398Z,63.16
2019-06-20T09:12:59.673Z,65.08
2019-06-20T09:13:59.645Z,64.95
2019-06-20T09:15:00.867Z,65.25
2019-06-20T09:16:00.821Z,62.86
2019-06-20T09:17:00.708Z,64.95
2019-06-20T09:18:00.728Z,63.06
2019-06-20T09:19:00.489Z,64.75
2019-06-20T09:20:00.251Z,63.85
2019-06-20T09:21:00.282Z,63.43
2019-06-20T09:22:00.480Z,66.01
2019-06-20T09:23:00.932Z,64.92
2019-06-20T09:23:59.944Z,65.22
2019-06-20T09:25:00.737Z,64.39
2019-06-20T09:25:59.670Z,62.90
2019-06-20T09:26:59.496Z,63.07
2019-06-20T09:28:00.460Z,60.98
2019-06-20T09:28:59.644Z,61.18
2019-06-20T09:30:00.480Z,61.88
2019-06-20T09:30:59.463Z,62.97
2019-06-20T09:32:00.045Z,61.98
2019-06-20T09:32:59.952Z,63.64
2019-06-20T09:34:02.425Z,63.73
2019-06-20T09:34:59.424Z,62.94
2019-06-20T09:35:59.587Z,63.40
2019-06-20T09:36:59.451Z,63.51
2019-06-20T09:37:59.469Z,63.01
2019-06-20T09:38:59.633Z,62.41
2019-06-20T09:39:59.378Z,60.96
2019-06-20T09:40:59.345Z,60.96
2019-06-20T09:41:59.335Z,60.46
2019-06-20T09:42:59.335Z,62.15
2019-06-20T09:43:59.360Z,61.18
2019-06-20T09:44:59.346Z,63.04
2019-06-20T09:45:59.292Z,59.99
2019-06-20T09:46:59.283Z,61.28
2019-06-20T09:47:59.268Z,60.19
2019-06-20T09:48:59.270Z,62.87
2019-06-20T09:49:59.326Z,62.87
2019-06-20T09:50:59.236Z,61.98
2019-06-20T09:51:59.229Z,62.40
2019-06-20T09:52:59.222Z,61.98
2019-06-20T09:53:59.214Z,61.08
2019-06-20T09:54:59.202Z,61.08
2019-06-20T09:55:59.254Z,63.17
2019-06-20T09:56:59.192Z,62.67
2019-06-20T09:57:59.171Z,62.97
2019-06-20T09:58:59.167Z,63.17
2019-06-20T10:00:09.635Z,61.11
2019-06-20T10:00:59.156Z,61.21
2019-06-20T10:01:59.123Z,63.30
2019-06-20T10:02:59.112Z,62.50
2019-06-20T10:03:59.134Z,62.21
2019-06-20T10:04:59.096Z,61.98
2019-06-20T10:05:59.152Z,62.37
2019-06-20T10:06:59.085Z,62.07
2019-06-20T10:07:59.056Z,61.08
2019-06-20T10:08:59.046Z,62.77
2019-06-20T10:09:59.062Z,62.84
2019-06-20T10:10:59.028Z,61.05
2019-06-20T10:11:59.030Z,61.25
2019-06-20T10:12:59.038Z,61.05
2019-06-20T10:13:58.998Z,61.32
2019-06-20T10:14:58.981Z,61.12
2019-06-20T10:15:59.063Z,61.32
2019-06-20T10:16:58.990Z,60.63
2019-06-20T10:17:58.958Z,61.19
2019-06-20T10:18:58.936Z,59.83
2019-06-20T10:19:58.928Z,60.03
2019-06-20T10:20:58.970Z,60.20
2019-06-20T10:21:59.027Z,59.23
2019-06-20T10:22:58.891Z,60.72
2019-06-20T10:23:58.885Z,61.91
2019-06-20T10:24:58.875Z,62.02
2019-06-20T10:25:58.909Z,61.22
2019-06-20T10:26:58.852Z,61.32
2019-06-20T10:27:58.938Z,61.32
2019-06-20T10:28:58.862Z,62.18
2019-06-20T10:30:13.472Z,62.08
2019-06-20T10:30:58.813Z,60.10
2019-06-20T10:31:58.795Z,61.29
2019-06-20T10:32:58.807Z,62.08
2019-06-20T10:33:58.857Z,62.05
2019-06-20T10:34:58.768Z,63.15
2019-06-20T10:35:58.783Z,59.75
2019-06-20T10:36:58.741Z,58.86
2019-06-20T10:37:58.815Z,57.97
2019-06-20T10:38:58.755Z,57.76
2019-06-20T10:39:58.785Z,57.17
2019-06-20T10:41:00.100Z,56.28
2019-06-20T10:41:58.750Z,57.37
2019-06-20T10:42:58.679Z,57.89
2019-06-20T10:43:58.685Z,59.01
2019-06-20T10:44:58.656Z,59.48
2019-06-20T10:45:58.654Z,59.11
2019-06-20T10:46:58.658Z,59.31
2019-06-20T10:47:58.684Z,59.01
2019-06-20T10:48:58.644Z,59.21
2019-06-20T10:49:58.602Z,59.18
2019-06-20T10:50:58.612Z,59.58
2019-06-20T10:51:58.580Z,60.77
2019-06-20T10:52:58.582Z,60.20
2019-06-20T10:53:58.651Z,60.30
2019-06-20T10:54:58.548Z,61.39
2019-06-20T10:55:58.548Z,59.91
2019-06-20T10:56:58.542Z,60.50
2019-06-20T10:57:58.517Z,60.80
2019-06-20T10:58:58.528Z,62.81
2019-06-20T10:59:58.552Z,60.13
2019-06-20T11:00:58.485Z,60.72
2019-06-20T11:01:58.476Z,61.22
2019-06-20T11:02:58.482Z,60.72
2019-06-20T11:03:58.462Z,60.63
2019-06-20T11:04:58.466Z,60.00
2019-06-20T11:05:58.467Z,60.89
2019-06-20T11:06:58.420Z,60.00
2019-06-20T11:07:58.438Z,61.19
2019-06-20T11:08:58.415Z,56.93
2019-06-20T11:09:58.441Z,58.29
2019-06-20T11:10:58.404Z,57.89
2019-06-20T11:11:58.415Z,61.04
2019-06-20T11:12:58.356Z,58.75
2019-06-20T11:13:58.351Z,56.77
2019-06-20T11:14:58.386Z,59.94
2019-06-20T11:15:58.332Z,57.86
2019-06-20T11:16:58.345Z,57.07
2019-06-20T11:17:58.348Z,57.97
2019-06-20T11:18:58.293Z,58.56
2019-06-20T11:19:58.310Z,59.05
2019-06-20T11:20:58.305Z,59.05
2019-06-20T11:21:58.270Z,59.45
2019-06-20T11:22:58.294Z,58.56
2019-06-20T11:23:58.239Z,58.36
2019-06-20T11:24:58.231Z,58.16
2019-06-20T11:25:58.307Z,57.86
2019-06-20T11:26:58.209Z,57.59
2019-06-20T11:27:58.211Z,58.78
2019-06-20T11:28:58.208Z,60.86
2019-06-20T11:29:58.214Z,60.17
2019-06-20T11:31:00.687Z,60.17
2019-06-20T11:31:58.192Z,58.59
2019-06-20T11:32:58.142Z,59.58
2019-06-20T11:33:58.150Z,59.61
2019-06-20T11:34:58.179Z,58.72
2019-06-20T11:35:58.128Z,59.51
2019-06-20T11:36:58.097Z,59.61
2019-06-20T11:37:58.106Z,60.70
2019-06-20T11:38:58.098Z,58.78
2019-06-20T11:39:58.077Z,55.71
2019-06-20T11:40:58.085Z,56.60
2019-06-20T11:41:58.046Z,56.51
2019-06-20T11:42:58.034Z,56.48
2019-06-20T11:43:58.042Z,56.15
2019-06-20T11:44:58.016Z,56.85
2019-06-20T11:45:58.139Z,57.14
2019-06-20T11:46:57.992Z,58.03
2019-06-20T11:47:57.986Z,57.31
2019-06-20T11:48:57.970Z,56.35
2019-06-20T11:49:57.990Z,55.26
2019-06-20T11:50:57.958Z,55.85
2019-06-20T11:51:58.012Z,56.28
2019-06-20T11:52:57.930Z,56.68
2019-06-20T11:53:57.931Z,56.28
2019-06-20T11:54:57.909Z,55.41
2019-06-20T11:55:57.905Z,57.27
2019-06-20T11:56:57.941Z,57.37
2019-06-20T11:57:57.996Z,57.17
2019-06-20T11:58:57.865Z,55.96
2019-06-20T11:59:57.852Z,57.34
2019-06-20T12:01:03.614Z,59.03
2019-06-20T12:01:57.883Z,58.06
2019-06-20T12:02:57.838Z,58.46
2019-06-20T12:03:57.868Z,59.42
2019-06-20T12:04:57.807Z,57.54
2019-06-20T12:05:57.802Z,57.86
2019-06-20T12:06:57.787Z,57.84
2019-06-20T12:07:57.804Z,56.68
2019-06-20T12:08:57.777Z,58.26
2019-06-20T12:09:57.820Z,58.59
2019-06-20T12:10:57.733Z,57.99
2019-06-20T12:11:57.723Z,58.19
2019-06-20T12:12:57.740Z,59.08
2019-06-20T12:13:57.707Z,60.47
2019-06-20T12:14:57.707Z,60.57
2019-06-20T12:15:57.724Z,56.90
2019-06-20T12:16:57.764Z,58.22
2019-06-20T12:17:57.744Z,59.01
2019-06-20T12:18:57.671Z,58.61
2019-06-20T12:19:57.661Z,58.22
2019-06-20T12:20:57.645Z,58.12
2019-06-20T12:21:57.619Z,58.02
2019-06-20T12:22:57.707Z,59.01
2019-06-20T12:23:57.601Z,60.07
2019-06-20T12:24:57.629Z,59.18
2019-06-20T12:25:57.583Z,58.59
2019-06-20T12:26:57.622Z,60.96
2019-06-20T12:27:57.602Z,58.48
2019-06-20T12:28:57.560Z,57.50
2019-06-20T12:29:57.546Z,56.80
2019-06-20T12:30:57.533Z,57.79
2019-06-20T12:31:59.078Z,57.00
2019-06-20T12:32:57.518Z,57.59
2019-06-20T12:33:57.539Z,58.48
2019-06-20T12:34:57.483Z,58.29
2019-06-20T12:35:57.469Z,57.00
2019-06-20T12:36:57.470Z,58.12
2019-06-20T12:37:57.457Z,57.62
2019-06-20T12:38:57.500Z,57.23
2019-06-20T12:39:57.460Z,59.51
2019-06-20T12:40:57.424Z,57.62
2019-06-20T12:41:57.417Z,57.82
2019-06-20T12:42:57.398Z,57.75
2019-06-20T12:43:57.395Z,57.65
2019-06-20T12:44:57.562Z,59.04
2019-06-20T12:45:57.377Z,60.23
2019-06-20T12:46:57.353Z,57.65
2019-06-20T12:47:57.350Z,60.53
2019-06-20T12:48:57.334Z,59.63
2019-06-20T12:49:57.342Z,59.04
2019-06-20T12:50:57.313Z,57.55
2019-06-20T12:51:57.311Z,58.84
2019-06-20T12:52:57.288Z,56.36
2019-06-20T12:53:57.330Z,57.13